sensor_id;sensor_type;location;lat;lon;timestamp;pressure;altitude;pressure_sealevel;temperature;humidity
8697;BME280;4385;48.848;8.924;2024-02-15T00:02:19;97853.38;;;19.29;100.00
8697;BME280;4385;48.848;8.924;2024-02-15T00:04:45;97849.16;;;19.27;100.00
8697;BME280;4385;48.848;8.924;2024-02-15T00:07:10;97848.31;;;19.26;100.00
8697;BME280;4385;48.848;8.924;2024-02-15T00:09:35;97850.91;;;19.25;100.00
8697;BME280;4385;48.848;8.924;2024-02-15T00:12:01;97853.47;;;19.25;100.00
8697;BME280;4385;48.848;8.924;2024-02-15T00:14:27;97845.78;;;19.25;100.00
8697;BME280;4385;48.848;8.924;2024-02-15T00:16:56;97841.53;;;19.25;100.00
8697;BME280;4385;48.848;8.924;2024-02-15T00:19:21;97850.06;;;19.24;100.00
8697;BME280;4385;48.848;8.924;2024-02-15T00:21:47;97847.50;;;19.24;100.00
8697;BME280;4385;48.848;8.924;2024-02-15T00:24:13;97840.72;;;19.23;100.00
8697;BME280;4385;48.848;8.924;2024-02-15T00:26:40;97838.13;;;19.25;100.00
8697;BME280;4385;48.848;8.924;2024-02-15T00:29:05;97841.53;;;19.25;100.00
8697;BME280;4385;48.848;8.924;2024-02-15T00:31:30;97843.25;;;19.25;100.00
8697;BME280;4385;48.848;8.924;2024-02-15T00:33:56;97842.34;;;19.26;100.00
8697;BME280;4385;48.848;8.924;2024-02-15T00:36:21;97842.38;;;19.24;100.00
8697;BME280;4385;48.848;8.924;2024-02-15T00:38:46;97847.50;;;19.24;100.00
8697;BME280;4385;48.848;8.924;2024-02-15T00:41:12;97839.00;;;19.24;100.00
8697;BME280;4385;48.848;8.924;2024-02-15T00:43:37;97838.16;;;19.23;100.00
8697;BME280;4385;48.848;8.924;2024-02-15T00:46:03;97835.59;;;19.23;100.00
8697;BME280;4385;48.848;8.924;2024-02-15T00:48:28;97839.88;;;19.23;100.00
8697;BME280;4385;48.848;8.924;2024-02-15T00:50:55;97840.72;;;19.23;100.00
8697;BME280;4385;48.848;8.924;2024-02-15T00:53:20;97844.19;;;19.21;100.00
8697;BME280;4385;48.848;8.924;2024-02-15T00:55:46;97838.22;;;19.20;100.00
8697;BME280;4385;48.848;8.924;2024-02-15T00:58:11;97831.44;;;19.19;100.00
8697;BME280;4385;48.848;8.924;2024-02-15T01:00:37;97839.97;;;19.18;100.00
8697;BME280;4385;48.848;8.924;2024-02-15T01:03:03;97843.38;;;19.17;100.00
8697;BME280;4385;48.848;8.924;2024-02-15T01:05:29;97838.28;;;19.17;100.00
8697;BME280;4385;48.848;8.924;2024-02-15T01:07:55;97839.16;;;19.16;100.00
8697;BME280;4385;48.848;8.924;2024-02-15T01:10:21;97838.34;;;19.14;100.00
8697;BME280;4385;48.848;8.924;2024-02-15T01:12:47;97836.66;;;19.13;100.00
8697;BME280;4385;48.848;8.924;2024-02-15T01:15:13;97825.63;;;19.11;100.00
8697;BME280;4385;48.848;8.924;2024-02-15T01:17:39;97828.22;;;19.09;100.00
8697;BME280;4385;48.848;8.924;2024-02-15T01:20:05;97835.03;;;19.09;100.00
8697;BME280;4385;48.848;8.924;2024-02-15T01:22:31;97838.44;;;19.07;100.00
8697;BME280;4385;48.848;8.924;2024-02-15T01:24:57;97829.13;;;19.05;100.00
8697;BME280;4385;48.848;8.924;2024-02-15T01:27:23;97835.06;;;19.05;100.00
8697;BME280;4385;48.848;8.924;2024-02-15T01:29:48;97833.38;;;19.04;100.00
8697;BME280;4385;48.848;8.924;2024-02-15T01:32:13;97837.59;;;19.05;100.00
8697;BME280;4385;48.848;8.924;2024-02-15T01:34:40;97833.38;;;19.04;100.00
8697;BME280;4385;48.848;8.924;2024-02-15T01:37:05;97834.22;;;19.05;100.00
8697;BME280;4385;48.848;8.924;2024-02-15T01:39:30;97824.84;;;19.05;100.00
8697;BME280;4385;48.848;8.924;2024-02-15T01:41:56;97829.09;;;19.06;100.00
8697;BME280;4385;48.848;8.924;2024-02-15T01:44:22;97824.84;;;19.05;100.00
8697;BME280;4385;48.848;8.924;2024-02-15T01:46:50;97822.25;;;19.07;100.00
8697;BME280;4385;48.848;8.924;2024-02-15T01:49:18;97840.97;;;19.07;100.00
8697;BME280;4385;48.848;8.924;2024-02-15T01:51:44;97836.72;;;19.08;100.00
8697;BME280;4385;48.848;8.924;2024-02-15T01:54:13;97836.72;;;19.08;100.00
8697;BME280;4385;48.848;8.924;2024-02-15T01:56:42;97829.91;;;19.09;100.00
8697;BME280;4385;48.848;8.924;2024-02-15T01:59:08;97834.19;;;19.10;100.00
8697;BME280;4385;48.848;8.924;2024-02-15T02:01:35;97826.50;;;19.10;100.00
8697;BME280;4385;48.848;8.924;2024-02-15T02:04:00;97833.31;;;19.09;100.00
8697;BME280;4385;48.848;8.924;2024-02-15T02:06:26;97829.06;;;19.08;100.00
8697;BME280;4385;48.848;8.924;2024-02-15T02:08:52;97833.31;;;19.07;100.00
8697;BME280;4385;48.848;8.924;2024-02-15T02:11:20;97820.59;;;19.06;100.00
8697;BME280;4385;48.848;8.924;2024-02-15T02:13:46;97824.00;;;19.05;100.00
8697;BME280;4385;48.848;8.924;2024-02-15T02:16:30;97826.59;;;19.03;100.00
8697;BME280;4385;48.848;8.924;2024-02-15T02:18:58;97826.59;;;19.03;100.00
8697;BME280;4385;48.848;8.924;2024-02-15T02:21:28;97824.09;;;19.00;100.00
8697;BME280;4385;48.848;8.924;2024-02-15T02:23:56;97819.03;;;18.99;100.00
8697;BME280;4385;48.848;8.924;2024-02-15T02:26:23;97819.09;;;18.96;100.00
8697;BME280;4385;48.848;8.924;2024-02-15T02:28:49;97819.09;;;18.96;100.00
8697;BME280;4385;48.848;8.924;2024-02-15T02:31:15;97814.00;;;18.94;100.00
8697;BME280;4385;48.848;8.924;2024-02-15T02:33:41;97811.44;;;18.94;100.00
8697;BME280;4385;48.848;8.924;2024-02-15T02:36:07;97802.13;;;18.91;100.00
8697;BME280;4385;48.848;8.924;2024-02-15T02:38:35;97812.34;;;18.91;100.00
8697;BME280;4385;48.848;8.924;2024-02-15T02:41:05;97809.81;;;18.90;100.00
8697;BME280;4385;48.848;8.924;2024-02-15T02:43:31;97806.41;;;18.91;100.00
8697;BME280;4385;48.848;8.924;2024-02-15T02:45:56;97815.72;;;18.92;100.00
8697;BME280;4385;48.848;8.924;2024-02-15T02:48:21;97813.19;;;18.92;100.00
8697;BME280;4385;48.848;8.924;2024-02-15T02:50:49;97820.00;;;18.91;100.00
8697;BME280;4385;48.848;8.924;2024-02-15T02:53:15;97813.19;;;18.92;100.00
8697;BME280;4385;48.848;8.924;2024-02-15T02:55:41;97813.19;;;18.92;100.00
8697;BME280;4385;48.848;8.924;2024-02-15T02:58:07;97814.84;;;18.93;100.00
8697;BME280;4385;48.848;8.924;2024-02-15T03:00:33;97806.34;;;18.94;100.00
8697;BME280;4385;48.848;8.924;2024-02-15T03:02:58;97815.72;;;18.92;100.00
8697;BME280;4385;48.848;8.924;2024-02-15T03:05:25;97816.59;;;18.92;100.00
8697;BME280;4385;48.848;8.924;2024-02-15T03:07:50;97814.88;;;18.91;100.00
8697;BME280;4385;48.848;8.924;2024-02-15T03:10:17;97816.63;;;18.91;100.00
8697;BME280;4385;48.848;8.924;2024-02-15T03:12:43;97808.97;;;18.91;100.00
8697;BME280;4385;48.848;8.924;2024-02-15T03:15:12;97811.50;;;18.91;100.00
8697;BME280;4385;48.848;8.924;2024-02-15T03:17:43;97809.81;;;18.90;100.00
8697;BME280;4385;48.848;8.924;2024-02-15T03:20:10;97811.53;;;18.89;100.00
8697;BME280;4385;48.848;8.924;2024-02-15T03:22:58;97805.59;;;18.87;100.00
8697;BME280;4385;48.848;8.924;2024-02-15T03:25:25;97804.75;;;18.87;100.00
8697;BME280;4385;48.848;8.924;2024-02-15T03:27:52;97805.63;;;18.86;100.00
8697;BME280;4385;48.848;8.924;2024-02-15T03:30:22;97803.09;;;18.86;100.00
8697;BME280;4385;48.848;8.924;2024-02-15T03:32:51;97802.22;;;18.85;100.00
8697;BME280;4385;48.848;8.924;2024-02-15T03:35:18;97806.53;;;18.85;100.00
8697;BME280;4385;48.848;8.924;2024-02-15T03:37:44;97804.81;;;18.84;100.00
8697;BME280;4385;48.848;8.924;2024-02-15T03:40:10;97812.47;;;18.84;100.00
8697;BME280;4385;48.848;8.924;2024-02-15T03:42:36;97808.22;;;18.84;100.00
8697;BME280;4385;48.848;8.924;2024-02-15T03:45:05;97811.63;;;18.85;100.00
8697;BME280;4385;48.848;8.924;2024-02-15T03:47:32;97811.63;;;18.85;100.00
8697;BME280;4385;48.848;8.924;2024-02-15T03:49:59;97811.63;;;18.85;100.00
8697;BME280;4385;48.848;8.924;2024-02-15T03:52:24;97809.91;;;18.85;100.00
8697;BME280;4385;48.848;8.924;2024-02-15T03:54:49;97811.59;;;18.86;100.00
8697;BME280;4385;48.848;8.924;2024-02-15T03:57:15;97814.13;;;18.88;100.00
8697;BME280;4385;48.848;8.924;2024-02-15T03:59:41;97816.69;;;18.88;100.00
8697;BME280;4385;48.848;8.924;2024-02-15T04:02:07;97821.78;;;18.88;100.00
8697;BME280;4385;48.848;8.924;2024-02-15T04:04:37;97813.25;;;18.89;100.00
8697;BME280;4385;48.848;8.924;2024-02-15T04:07:03;97814.09;;;18.89;100.00
8697;BME280;4385;48.848;8.924;2024-02-15T04:09:28;97816.63;;;18.91;100.00
8697;BME280;4385;48.848;8.924;2024-02-15T04:11:53;97814.88;;;18.91;100.00
8697;BME280;4385;48.848;8.924;2024-02-15T04:14:19;97808.97;;;18.91;100.00
8697;BME280;4385;48.848;8.924;2024-02-15T04:16:45;97811.50;;;18.91;100.00
8697;BME280;4385;48.848;8.924;2024-02-15T04:19:13;97811.50;;;18.91;100.00
8697;BME280;4385;48.848;8.924;2024-02-15T04:21:38;97808.94;;;18.92;100.00
8697;BME280;4385;48.848;8.924;2024-02-15T04:24:05;97813.19;;;18.92;100.00
8697;BME280;4385;48.848;8.924;2024-02-15T04:26:31;97810.63;;;18.92;100.00
8697;BME280;4385;48.848;8.924;2024-02-15T04:28:57;97809.75;;;18.93;100.00
8697;BME280;4385;48.848;8.924;2024-02-15T04:31:23;97813.19;;;18.92;100.00
8697;BME280;4385;48.848;8.924;2024-02-15T04:33:52;97815.72;;;18.92;100.00
8697;BME280;4385;48.848;8.924;2024-02-15T04:36:17;97811.50;;;18.91;100.00
8697;BME280;4385;48.848;8.924;2024-02-15T04:38:48;97811.50;;;18.91;100.00
8697;BME280;4385;48.848;8.924;2024-02-15T04:41:15;97806.41;;;18.91;100.00
8697;BME280;4385;48.848;8.924;2024-02-15T04:43:44;97810.63;;;18.92;100.00
8697;BME280;4385;48.848;8.924;2024-02-15T04:46:10;97803.84;;;18.91;100.00
8697;BME280;4385;48.848;8.924;2024-02-15T04:48:35;97808.94;;;18.92;100.00
8697;BME280;4385;48.848;8.924;2024-02-15T04:51:02;97802.09;;;18.93;100.00
8697;BME280;4385;48.848;8.924;2024-02-15T04:53:27;97797.88;;;18.92;100.00
8697;BME280;4385;48.848;8.924;2024-02-15T04:55:55;97795.34;;;18.90;100.00
8697;BME280;4385;48.848;8.924;2024-02-15T04:58:20;97798.78;;;18.89;100.00
8697;BME280;4385;48.848;8.924;2024-02-15T05:00:45;97803.88;;;18.89;100.00
8697;BME280;4385;48.848;8.924;2024-02-15T05:03:12;97796.25;;;18.88;100.00
8697;BME280;4385;48.848;8.924;2024-02-15T05:05:37;97793.72;;;18.86;100.00
8697;BME280;4385;48.848;8.924;2024-02-15T05:08:04;97792.88;;;18.86;100.00
8697;BME280;4385;48.848;8.924;2024-02-15T05:10:29;97792.03;;;18.85;100.00
8697;BME280;4385;48.848;8.924;2024-02-15T05:12:55;97787.75;;;18.86;100.00
8697;BME280;4385;48.848;8.924;2024-02-15T05:15:20;97795.44;;;18.86;100.00
8697;BME280;4385;48.848;8.924;2024-02-15T05:17:49;97790.31;;;18.86;100.00
8697;BME280;4385;48.848;8.924;2024-02-15T05:20:15;97783.50;;;18.86;100.00
8697;BME280;4385;48.848;8.924;2024-02-15T05:22:41;97782.66;;;18.86;100.00
8697;BME280;4385;48.848;8.924;2024-02-15T05:25:13;97775.88;;;18.85;100.00
8697;BME280;4385;48.848;8.924;2024-02-15T05:27:38;97775.00;;;18.86;100.00
8697;BME280;4385;48.848;8.924;2024-02-15T05:30:04;97772.44;;;18.86;100.00
8697;BME280;4385;48.848;8.924;2024-02-15T05:32:35;97779.22;;;18.87;100.00
8697;BME280;4385;48.848;8.924;2024-02-15T05:35:11;97780.94;;;18.88;100.00
8697;BME280;4385;48.848;8.924;2024-02-15T05:37:39;97784.28;;;18.90;100.00
8697;BME280;4385;48.848;8.924;2024-02-15T05:40:06;97780.00;;;18.92;100.00
8697;BME280;4385;48.848;8.924;2024-02-15T05:42:32;97785.91;;;18.94;100.00
8697;BME280;4385;48.848;8.924;2024-02-15T05:45:26;97785.84;;;18.97;100.00
8697;BME280;4385;48.848;8.924;2024-02-15T05:47:55;97787.47;;;19.01;100.00
8697;BME280;4385;48.848;8.924;2024-02-15T05:50:21;97795.94;;;19.03;100.00
8697;BME280;4385;48.848;8.924;2024-02-15T05:52:49;97784.84;;;19.04;100.00
8697;BME280;4385;48.848;8.924;2024-02-15T05:55:18;97789.06;;;19.07;100.00
8697;BME280;4385;48.848;8.924;2024-02-15T05:57:44;97794.16;;;19.09;100.00
8697;BME280;4385;48.848;8.924;2024-02-15T06:00:10;97791.53;;;19.12;100.00
8697;BME280;4385;48.848;8.924;2024-02-15T06:02:35;97780.47;;;19.13;100.00
8697;BME280;4385;48.848;8.924;2024-02-15T06:05:01;97783.81;;;19.15;100.00
8697;BME280;4385;48.848;8.924;2024-02-15T06:07:27;97785.53;;;19.16;100.00
8697;BME280;4385;48.848;8.924;2024-02-15T06:09:53;97787.19;;;19.17;100.00
8697;BME280;4385;48.848;8.924;2024-02-15T06:12:18;97784.63;;;19.17;100.00
8697;BME280;4385;48.848;8.924;2024-02-15T06:14:44;97787.13;;;19.20;100.00
8697;BME280;4385;48.848;8.924;2024-02-15T06:17:09;97782.88;;;19.21;100.00
8697;BME280;4385;48.848;8.924;2024-02-15T06:19:35;97775.16;;;19.22;100.00
8697;BME280;4385;48.848;8.924;2024-02-15T06:22:01;97778.56;;;19.23;100.00
8697;BME280;4385;48.848;8.924;2024-02-15T06:24:26;97780.22;;;19.25;100.00
8697;BME280;4385;48.848;8.924;2024-02-15T06:26:53;97781.06;;;19.24;100.00
8697;BME280;4385;48.848;8.924;2024-02-15T06:29:24;97779.38;;;19.25;100.00
8697;BME280;4385;48.848;8.924;2024-02-15T06:32:08;97786.16;;;19.26;100.00
8697;BME280;4385;48.848;8.924;2024-02-15T06:34:52;97782.75;;;19.27;100.00
8697;BME280;4385;48.848;8.924;2024-02-15T06:37:37;97776.78;;;19.26;100.00
8697;BME280;4385;48.848;8.924;2024-02-15T06:40:21;97782.78;;;19.25;100.00
8697;BME280;4385;48.848;8.924;2024-02-15T06:42:47;97775.13;;;19.25;100.00
8697;BME280;4385;48.848;8.924;2024-02-15T06:45:12;97783.59;;;19.26;100.00
8697;BME280;4385;48.848;8.924;2024-02-15T06:47:41;97792.13;;;19.25;100.00
8697;BME280;4385;48.848;8.924;2024-02-15T06:50:07;97782.81;;;19.24;100.00
8697;BME280;4385;48.848;8.924;2024-02-15T06:52:34;97781.09;;;19.23;100.00
8697;BME280;4385;48.848;8.924;2024-02-15T06:54:59;97792.19;;;19.23;100.00
8697;BME280;4385;48.848;8.924;2024-02-15T06:57:25;97790.50;;;19.22;100.00
8697;BME280;4385;48.848;8.924;2024-02-15T06:59:50;97792.19;;;19.23;100.00
8697;BME280;4385;48.848;8.924;2024-02-15T07:02:16;97777.72;;;19.22;100.00
8697;BME280;4385;48.848;8.924;2024-02-15T07:04:44;97789.69;;;19.20;100.00
8697;BME280;4385;48.848;8.924;2024-02-15T07:07:10;97782.88;;;19.21;100.00
8697;BME280;4385;48.848;8.924;2024-02-15T07:09:35;97776.84;;;19.23;100.00
8697;BME280;4385;48.848;8.924;2024-02-15T07:12:00;97769.19;;;19.23;100.00
8697;BME280;4385;48.848;8.924;2024-02-15T07:14:26;97772.56;;;19.25;100.00
8697;BME280;4385;48.848;8.924;2024-02-15T07:16:53;97766.56;;;19.26;100.00
8697;BME280;4385;48.848;8.924;2024-02-15T07:19:21;97773.34;;;19.27;100.00
8697;BME280;4385;48.848;8.924;2024-02-15T07:21:47;97768.22;;;19.27;100.00
8697;BME280;4385;48.848;8.924;2024-02-15T07:24:12;97769.09;;;19.28;100.00
8697;BME280;4385;48.848;8.924;2024-02-15T07:26:38;97769.94;;;19.28;100.00
8697;BME280;4385;48.848;8.924;2024-02-15T07:29:04;97753.72;;;19.29;100.00
8697;BME280;4385;48.848;8.924;2024-02-15T07:31:31;97749.50;;;19.28;100.00
8697;BME280;4385;48.848;8.924;2024-02-15T07:33:57;97751.16;;;19.29;100.00
8697;BME280;4385;48.848;8.924;2024-02-15T07:36:23;97746.06;;;19.29;100.00
8697;BME280;4385;48.848;8.924;2024-02-15T07:38:49;97748.63;;;19.29;100.00
8697;BME280;4385;48.848;8.924;2024-02-15T07:41:17;97749.50;;;19.28;100.00
8697;BME280;4385;48.848;8.924;2024-02-15T07:43:43;97753.75;;;19.28;100.00
8697;BME280;4385;48.848;8.924;2024-02-15T07:46:12;97744.38;;;19.28;100.00
8697;BME280;4385;48.848;8.924;2024-02-15T07:48:38;97736.75;;;19.27;100.00
8697;BME280;4385;48.848;8.924;2024-02-15T07:51:04;97738.50;;;19.25;100.00
8697;BME280;4385;48.848;8.924;2024-02-15T07:53:31;97737.63;;;19.24;100.00
8697;BME280;4385;48.848;8.924;2024-02-15T07:55:56;97725.75;;;19.23;100.00
8697;BME280;4385;48.848;8.924;2024-02-15T07:58:23;97731.72;;;19.24;100.00
8697;BME280;4385;48.848;8.924;2024-02-15T08:00:48;97726.59;;;19.24;100.00
8697;BME280;4385;48.848;8.924;2024-02-15T08:03:13;97727.38;;;19.26;100.00
8697;BME280;4385;48.848;8.924;2024-02-15T08:05:39;97734.22;;;19.25;100.00
8697;BME280;4385;48.848;8.924;2024-02-15T08:08:05;97732.53;;;19.24;100.00
8697;BME280;4385;48.848;8.924;2024-02-15T08:10:31;97741.88;;;19.27;100.00
8697;BME280;4385;48.848;8.924;2024-02-15T08:12:56;97736.75;;;19.27;100.00
8697;BME280;4385;48.848;8.924;2024-02-15T08:15:23;97724.81;;;19.27;100.00
8697;BME280;4385;48.848;8.924;2024-02-15T08:17:49;97724.81;;;19.27;100.00
8697;BME280;4385;48.848;8.924;2024-02-15T08:20:15;97713.75;;;19.27;100.00
8697;BME280;4385;48.848;8.924;2024-02-15T08:22:46;97716.34;;;19.25;100.00
8697;BME280;4385;48.848;8.924;2024-02-15T08:25:13;97705.25;;;19.26;100.00
8697;BME280;4385;48.848;8.924;2024-02-15T08:27:41;97703.56;;;19.25;100.00
8697;BME280;4385;48.848;8.924;2024-02-15T08:30:12;97706.16;;;19.24;100.00
8697;BME280;4385;48.848;8.924;2024-02-15T08:32:38;97702.75;;;19.23;100.00
8697;BME280;4385;48.848;8.924;2024-02-15T08:35:08;97701.91;;;19.23;100.00
8697;BME280;4385;48.848;8.924;2024-02-15T08:37:34;97695.13;;;19.22;100.00
8697;BME280;4385;48.848;8.924;2024-02-15T08:40:02;97703.63;;;19.22;100.00
8697;BME280;4385;48.848;8.924;2024-02-15T08:42:28;97698.56;;;19.21;100.00
8697;BME280;4385;48.848;8.924;2024-02-15T08:44:53;97697.72;;;19.20;100.00
8697;BME280;4385;48.848;8.924;2024-02-15T08:47:18;97696.00;;;19.21;100.00
8697;BME280;4385;48.848;8.924;2024-02-15T08:49:43;97688.38;;;19.19;100.00
8697;BME280;4385;48.848;8.924;2024-02-15T08:52:09;97693.47;;;19.21;100.00
8697;BME280;4385;48.848;8.924;2024-02-15T08:54:36;97679.84;;;19.20;100.00
8697;BME280;4385;48.848;8.924;2024-02-15T08:57:04;97680.72;;;19.19;100.00
8697;BME280;4385;48.848;8.924;2024-02-15T08:59:29;97680.72;;;19.19;100.00
8697;BME280;4385;48.848;8.924;2024-02-15T09:01:55;97690.06;;;19.20;100.00
8697;BME280;4385;48.848;8.924;2024-02-15T09:04:21;97680.72;;;19.19;100.00
8697;BME280;4385;48.848;8.924;2024-02-15T09:06:48;97693.50;;;19.19;100.00
8697;BME280;4385;48.848;8.924;2024-02-15T09:09:13;97698.59;;;19.19;100.00
8697;BME280;4385;48.848;8.924;2024-02-15T09:11:39;97692.59;;;19.20;100.00
8697;BME280;4385;48.848;8.924;2024-02-15T09:14:04;97688.38;;;19.19;100.00
8697;BME280;4385;48.848;8.924;2024-02-15T09:16:29;97690.06;;;19.20;100.00
8697;BME280;4385;48.848;8.924;2024-02-15T09:18:56;97686.63;;;19.21;100.00
8697;BME280;4385;48.848;8.924;2024-02-15T09:21:25;97694.25;;;19.23;100.00
8697;BME280;4385;48.848;8.924;2024-02-15T09:23:53;97691.66;;;19.24;100.00
8697;BME280;4385;48.848;8.924;2024-02-15T09:26:19;97684.81;;;19.26;100.00
8697;BME280;4385;48.848;8.924;2024-02-15T09:28:44;97683.91;;;19.27;100.00
8697;BME280;4385;48.848;8.924;2024-02-15T09:31:12;97681.31;;;19.30;100.00
8697;BME280;4385;48.848;8.924;2024-02-15T09:33:38;97676.94;;;19.36;100.00
8697;BME280;4385;48.848;8.924;2024-02-15T09:36:04;97679.41;;;19.39;100.00
8697;BME280;4385;48.848;8.924;2024-02-15T09:38:29;97674.31;;;19.39;100.00
8697;BME280;4385;48.848;8.924;2024-02-15T09:40:55;97677.75;;;19.38;100.00
8697;BME280;4385;48.848;8.924;2024-02-15T09:43:20;97674.38;;;19.36;100.00
8697;BME280;4385;48.848;8.924;2024-02-15T09:45:47;97675.25;;;19.35;100.00
8697;BME280;4385;48.848;8.924;2024-02-15T09:48:15;97665.91;;;19.34;100.00
8697;BME280;4385;48.848;8.924;2024-02-15T09:50:44;97665.91;;;19.34;100.00
8697;BME280;4385;48.848;8.924;2024-02-15T09:53:12;97671.00;;;19.34;100.00
8697;BME280;4385;48.848;8.924;2024-02-15T09:55:39;97664.22;;;19.33;100.00
8697;BME280;4385;48.848;8.924;2024-02-15T09:58:07;97660.84;;;19.30;100.00
8697;BME280;4385;48.848;8.924;2024-02-15T10:00:33;97656.56;;;19.33;100.00
8697;BME280;4385;48.848;8.924;2024-02-15T10:03:00;97660.78;;;19.34;100.00
8697;BME280;4385;48.848;8.924;2024-02-15T10:05:27;97659.06;;;19.36;100.00
8697;BME280;4385;48.848;8.924;2024-02-15T10:07:53;97658.91;;;19.42;100.00
8697;BME280;4385;48.848;8.924;2024-02-15T10:10:23;97653.75;;;19.43;100.00
8697;BME280;4385;48.848;8.924;2024-02-15T10:12:49;97652.88;;;19.44;100.00
8697;BME280;4385;48.848;8.924;2024-02-15T10:15:38;97647.75;;;19.44;100.00
8697;BME280;4385;48.848;8.924;2024-02-15T10:18:04;97642.63;;;19.46;100.00
8697;BME280;4385;48.848;8.924;2024-02-15T10:20:31;97643.47;;;19.47;100.00
8697;BME280;4385;48.848;8.924;2024-02-15T10:25:27;97645.09;;;19.49;100.00
8697;BME280;4385;48.848;8.924;2024-02-15T10:28:21;97642.53;;;19.49;100.00
8697;BME280;4385;48.848;8.924;2024-02-15T10:30:51;97640.03;;;19.48;100.00
8697;BME280;4385;48.848;8.924;2024-02-15T10:33:28;97638.34;;;19.47;100.00
8697;BME280;4385;48.848;8.924;2024-02-15T10:36:10;97634.16;;;19.44;100.00
8697;BME280;4385;48.848;8.924;2024-02-15T10:38:38;97632.44;;;19.44;100.00
8697;BME280;4385;48.848;8.924;2024-02-15T10:41:05;97628.19;;;19.43;100.00
8697;BME280;4385;48.848;8.924;2024-02-15T10:43:30;97620.56;;;19.42;100.00
8697;BME280;4385;48.848;8.924;2024-02-15T10:45:56;97621.47;;;19.41;100.00
8697;BME280;4385;48.848;8.924;2024-02-15T10:48:22;97629.97;;;19.40;100.00
8697;BME280;4385;48.848;8.924;2024-02-15T10:50:47;97618.91;;;19.41;100.00
8697;BME280;4385;48.848;8.924;2024-02-15T10:55:53;97616.38;;;19.39;100.00
8697;BME280;4385;48.848;8.924;2024-02-15T10:58:19;97614.66;;;19.40;100.00
8697;BME280;4385;48.848;8.924;2024-02-15T11:00:46;97616.38;;;19.39;100.00
8697;BME280;4385;48.848;8.924;2024-02-15T11:03:22;97614.66;;;19.40;100.00
8697;BME280;4385;48.848;8.924;2024-02-15T11:05:51;97603.56;;;19.41;100.00
8697;BME280;4385;48.848;8.924;2024-02-15T11:08:17;97607.72;;;19.45;100.00
8697;BME280;4385;48.848;8.924;2024-02-15T11:10:43;97599.97;;;19.48;100.00
8697;BME280;4385;48.848;8.924;2024-02-15T11:13:09;97601.56;;;19.52;100.00
8697;BME280;4385;48.848;8.924;2024-02-15T11:18:02;97595.50;;;19.58;100.00
8697;BME280;4385;48.848;8.924;2024-02-15T11:22:59;97574.91;;;19.63;100.00
8697;BME280;4385;48.848;8.924;2024-02-15T11:25:35;97574.84;;;19.66;100.00
8697;BME280;4385;48.848;8.924;2024-02-15T11:28:35;97561.09;;;19.70;100.00
8697;BME280;4385;48.848;8.924;2024-02-15T11:31:02;97563.66;;;19.70;100.00
8697;BME280;4385;48.848;8.924;2024-02-15T11:36:11;97572.91;;;19.74;100.00
8697;BME280;4385;48.848;8.924;2024-02-15T11:38:37;97562.69;;;19.74;100.00
8697;BME280;4385;48.848;8.924;2024-02-15T11:41:06;97567.78;;;19.74;100.00
8697;BME280;4385;48.848;8.924;2024-02-15T11:46:09;97557.59;;;19.73;100.00
8697;BME280;4385;48.848;8.924;2024-02-15T11:48:38;97559.25;;;19.75;100.00
8697;BME280;4385;48.848;8.924;2024-02-15T11:51:06;97558.38;;;19.76;100.00
8697;BME280;4385;48.848;8.924;2024-02-15T11:53:32;97552.38;;;19.77;100.00
8697;BME280;4385;48.848;8.924;2024-02-15T11:56:00;97550.66;;;19.78;100.00
8697;BME280;4385;48.848;8.924;2024-02-15T11:58:27;97548.06;;;19.79;100.00
8697;BME280;4385;48.848;8.924;2024-02-15T12:01:08;97543.75;;;19.81;100.00
8697;BME280;4385;48.848;8.924;2024-02-15T12:03:53;97533.44;;;19.85;100.00
8697;BME280;4385;48.848;8.924;2024-02-15T12:06:38;97542.69;;;19.89;100.00
8697;BME280;4385;48.848;8.924;2024-02-15T12:09:22;97534.94;;;19.92;100.00
8697;BME280;4385;48.848;8.924;2024-02-15T12:12:06;97527.22;;;19.93;100.00
8697;BME280;4385;48.848;8.924;2024-02-15T12:15:00;97524.63;;;19.95;100.00
8697;BME280;4385;48.848;8.924;2024-02-15T12:17:44;97528.00;;;19.97;100.00
8697;BME280;4385;48.848;8.924;2024-02-15T12:20:28;97525.44;;;19.97;100.00
8697;BME280;4385;48.848;8.924;2024-02-15T12:22:54;97526.22;;;19.99;100.00
8697;BME280;4385;48.848;8.924;2024-02-15T12:25:20;97521.91;;;20.01;100.00
8697;BME280;4385;48.848;8.924;2024-02-15T12:27:54;97515.09;;;20.02;100.00
8697;BME280;4385;48.848;8.924;2024-02-15T12:30:20;97506.53;;;20.03;100.00
8697;BME280;4385;48.848;8.924;2024-02-15T12:32:49;97510.72;;;20.05;100.00
8697;BME280;4385;48.848;8.924;2024-02-15T12:35:16;97502.19;;;20.06;100.00
8697;BME280;4385;48.848;8.924;2024-02-15T12:37:47;97498.66;;;20.11;100.00
8697;BME280;4385;48.848;8.924;2024-02-15T12:40:15;97494.34;;;20.13;100.00
8697;BME280;4385;48.848;8.924;2024-02-15T12:42:45;97487.41;;;20.16;100.00
8697;BME280;4385;48.848;8.924;2024-02-15T12:45:24;97484.78;;;20.18;100.00
8697;BME280;4385;48.848;8.924;2024-02-15T12:47:51;97478.75;;;20.21;100.00
8697;BME280;4385;48.848;8.924;2024-02-15T12:50:17;97474.47;;;20.21;100.00
8697;BME280;4385;48.848;8.924;2024-02-15T12:52:45;97471.81;;;20.24;100.00
8697;BME280;4385;48.848;8.924;2024-02-15T12:55:19;97471.72;;;20.27;100.00
8697;BME280;4385;48.848;8.924;2024-02-15T12:57:51;97468.34;;;20.27;100.00
8697;BME280;4385;48.848;8.924;2024-02-15T13:00:24;97465.75;;;20.28;100.00
8697;BME280;4385;48.848;8.924;2024-02-15T13:02:54;97468.34;;;20.27;100.00
8697;BME280;4385;48.848;8.924;2024-02-15T13:05:21;97459.88;;;20.25;100.00
8697;BME280;4385;48.848;8.924;2024-02-15T13:07:50;97461.63;;;20.23;100.00
8697;BME280;4385;48.848;8.924;2024-02-15T13:10:16;97452.34;;;20.20;100.00
8697;BME280;4385;48.848;8.924;2024-02-15T13:12:42;97451.53;;;20.18;100.00
8697;BME280;4385;48.848;8.924;2024-02-15T13:15:09;97439.53;;;20.20;100.00
8697;BME280;4385;48.848;8.924;2024-02-15T13:17:39;97442.94;;;20.21;100.00
8697;BME280;4385;48.848;8.924;2024-02-15T13:20:05;97441.22;;;20.21;100.00
8697;BME280;4385;48.848;8.924;2024-02-15T13:22:36;97434.38;;;20.22;100.00
8697;BME280;4385;48.848;8.924;2024-02-15T13:25:03;97433.47;;;20.23;100.00
8697;BME280;4385;48.848;8.924;2024-02-15T13:27:29;97424.91;;;20.25;100.00
8697;BME280;4385;48.848;8.924;2024-02-15T13:29:54;97432.47;;;20.28;100.00